sensor_id;sensor_type;location;lat;lon;timestamp;P1;durP1;ratioP1;P2;durP2;ratioP2
72649;SDS011;61467;50.674;4.618;2024-03-08T00:00:34;20.25;;;10.13;;
72649;SDS011;61467;50.674;4.618;2024-03-08T00:03:03;21.40;;;10.48;;
72649;SDS011;61467;50.674;4.618;2024-03-08T00:05:30;20.42;;;10.38;;
72649;SDS011;61467;50.674;4.618;2024-03-08T00:07:57;23.50;;;10.00;;
72649;SDS011;61467;50.674;4.618;2024-03-08T00:10:25;22.70;;;10.15;;
72649;SDS011;61467;50.674;4.618;2024-03-08T00:12:53;23.05;;;9.85;;
72649;SDS011;61467;50.674;4.618;2024-03-08T00:15:22;24.20;;;9.90;;
72649;SDS011;61467;50.674;4.618;2024-03-08T00:17:49;22.15;;;9.88;;
72649;SDS011;61467;50.674;4.618;2024-03-08T00:25:26;22.50;;;10.95;;
72649;SDS011;61467;50.674;4.618;2024-03-08T00:27:53;21.20;;;10.00;;
72649;SDS011;61467;50.674;4.618;2024-03-08T00:30:22;22.55;;;9.90;;
72649;SDS011;61467;50.674;4.618;2024-03-08T00:32:50;29.53;;;10.53;;
72649;SDS011;61467;50.674;4.618;2024-03-08T00:35:17;23.27;;;10.52;;
72649;SDS011;61467;50.674;4.618;2024-03-08T00:37:44;21.60;;;9.38;;
72649;SDS011;61467;50.674;4.618;2024-03-08T00:40:12;23.80;;;11.05;;
72649;SDS011;61467;50.674;4.618;2024-03-08T00:42:39;25.35;;;11.60;;
72649;SDS011;61467;50.674;4.618;2024-03-08T00:45:09;25.67;;;9.90;;
72649;SDS011;61467;50.674;4.618;2024-03-08T00:47:38;23.33;;;10.25;;
72649;SDS011;61467;50.674;4.618;2024-03-08T00:50:05;24.75;;;11.15;;
72649;SDS011;61467;50.674;4.618;2024-03-08T00:52:33;26.05;;;11.63;;
72649;SDS011;61467;50.674;4.618;2024-03-08T00:55:00;20.00;;;9.95;;
72649;SDS011;61467;50.674;4.618;2024-03-08T00:57:27;24.27;;;10.13;;
72649;SDS011;61467;50.674;4.618;2024-03-08T00:59:54;22.48;;;10.63;;
72649;SDS011;61467;50.674;4.618;2024-03-08T01:02:21;23.63;;;10.77;;
72649;SDS011;61467;50.674;4.618;2024-03-08T01:04:49;26.15;;;10.68;;
72649;SDS011;61467;50.674;4.618;2024-03-08T01:07:16;22.02;;;10.27;;
72649;SDS011;61467;50.674;4.618;2024-03-08T01:09:43;24.37;;;10.33;;
72649;SDS011;61467;50.674;4.618;2024-03-08T01:12:11;24.15;;;10.55;;
72649;SDS011;61467;50.674;4.618;2024-03-08T01:14:37;23.90;;;11.23;;
72649;SDS011;61467;50.674;4.618;2024-03-08T01:17:04;22.08;;;9.90;;
72649;SDS011;61467;50.674;4.618;2024-03-08T01:19:31;25.17;;;11.23;;
72649;SDS011;61467;50.674;4.618;2024-03-08T01:22:00;24.07;;;10.83;;
72649;SDS011;61467;50.674;4.618;2024-03-08T01:24:28;25.48;;;10.48;;
72649;SDS011;61467;50.674;4.618;2024-03-08T01:26:55;24.45;;;11.50;;
72649;SDS011;61467;50.674;4.618;2024-03-08T01:29:22;23.33;;;10.85;;
72649;SDS011;61467;50.674;4.618;2024-03-08T01:31:49;24.25;;;10.68;;
72649;SDS011;61467;50.674;4.618;2024-03-08T01:34:17;23.53;;;10.93;;
72649;SDS011;61467;50.674;4.618;2024-03-08T01:36:44;23.55;;;10.60;;
72649;SDS011;61467;50.674;4.618;2024-03-08T01:39:12;22.05;;;10.38;;
72649;SDS011;61467;50.674;4.618;2024-03-08T01:41:39;23.38;;;10.98;;
72649;SDS011;61467;50.674;4.618;2024-03-08T01:44:07;27.77;;;10.88;;
72649;SDS011;61467;50.674;4.618;2024-03-08T01:46:34;23.03;;;11.03;;
72649;SDS011;61467;50.674;4.618;2024-03-08T01:49:01;20.60;;;10.68;;
72649;SDS011;61467;50.674;4.618;2024-03-08T01:51:29;26.63;;;11.50;;
72649;SDS011;61467;50.674;4.618;2024-03-08T01:53:57;25.08;;;11.18;;
72649;SDS011;61467;50.674;4.618;2024-03-08T01:56:26;25.00;;;11.50;;
72649;SDS011;61467;50.674;4.618;2024-03-08T01:58:53;27.17;;;11.93;;
72649;SDS011;61467;50.674;4.618;2024-03-08T02:01:21;25.75;;;11.85;;
72649;SDS011;61467;50.674;4.618;2024-03-08T02:03:49;23.95;;;11.48;;
72649;SDS011;61467;50.674;4.618;2024-03-08T02:06:16;27.45;;;11.88;;
72649;SDS011;61467;50.674;4.618;2024-03-08T02:08:43;23.83;;;11.38;;
72649;SDS011;61467;50.674;4.618;2024-03-08T02:11:10;26.37;;;12.03;;
72649;SDS011;61467;50.674;4.618;2024-03-08T02:13:39;25.15;;;12.82;;
72649;SDS011;61467;50.674;4.618;2024-03-08T02:16:06;22.50;;;11.43;;
72649;SDS011;61467;50.674;4.618;2024-03-08T02:18:33;25.67;;;12.02;;
72649;SDS011;61467;50.674;4.618;2024-03-08T02:21:02;24.55;;;11.50;;
72649;SDS011;61467;50.674;4.618;2024-03-08T02:23:30;25.10;;;12.43;;
72649;SDS011;61467;50.674;4.618;2024-03-08T02:25:58;22.95;;;12.10;;
72649;SDS011;61467;50.674;4.618;2024-03-08T02:28:26;24.25;;;11.77;;
72649;SDS011;61467;50.674;4.618;2024-03-08T02:30:54;23.73;;;11.20;;
72649;SDS011;61467;50.674;4.618;2024-03-08T02:33:21;22.40;;;11.35;;
72649;SDS011;61467;50.674;4.618;2024-03-08T02:35:48;22.50;;;12.33;;
72649;SDS011;61467;50.674;4.618;2024-03-08T02:38:18;23.88;;;11.77;;
72649;SDS011;61467;50.674;4.618;2024-03-08T02:40:46;28.25;;;12.20;;
72649;SDS011;61467;50.674;4.618;2024-03-08T02:43:14;23.15;;;12.20;;
72649;SDS011;61467;50.674;4.618;2024-03-08T02:45:43;25.20;;;12.48;;
72649;SDS011;61467;50.674;4.618;2024-03-08T02:48:10;26.00;;;12.80;;
72649;SDS011;61467;50.674;4.618;2024-03-08T02:50:38;23.40;;;13.15;;
72649;SDS011;61467;50.674;4.618;2024-03-08T02:53:07;25.13;;;13.35;;
72649;SDS011;61467;50.674;4.618;2024-03-08T02:55:36;24.05;;;12.63;;
72649;SDS011;61467;50.674;4.618;2024-03-08T02:58:04;22.58;;;12.75;;
72649;SDS011;61467;50.674;4.618;2024-03-08T03:00:33;24.93;;;12.37;;
72649;SDS011;61467;50.674;4.618;2024-03-08T03:03:00;24.58;;;12.57;;
72649;SDS011;61467;50.674;4.618;2024-03-08T03:05:28;28.10;;;12.93;;
72649;SDS011;61467;50.674;4.618;2024-03-08T03:07:56;27.30;;;13.60;;
72649;SDS011;61467;50.674;4.618;2024-03-08T03:10:23;29.55;;;13.73;;
72649;SDS011;61467;50.674;4.618;2024-03-08T03:12:52;25.23;;;12.30;;
72649;SDS011;61467;50.674;4.618;2024-03-08T03:15:19;25.75;;;13.15;;
72649;SDS011;61467;50.674;4.618;2024-03-08T03:17:46;24.83;;;13.52;;
72649;SDS011;61467;50.674;4.618;2024-03-08T03:20:13;28.83;;;13.77;;
72649;SDS011;61467;50.674;4.618;2024-03-08T03:22:47;28.75;;;13.88;;
72649;SDS011;61467;50.674;4.618;2024-03-08T03:25:17;26.00;;;13.87;;
72649;SDS011;61467;50.674;4.618;2024-03-08T03:27:48;24.55;;;13.48;;
72649;SDS011;61467;50.674;4.618;2024-03-08T03:30:17;26.95;;;13.75;;
72649;SDS011;61467;50.674;4.618;2024-03-08T03:32:47;31.50;;;14.40;;
72649;SDS011;61467;50.674;4.618;2024-03-08T03:35:16;23.17;;;12.38;;
72649;SDS011;61467;50.674;4.618;2024-03-08T03:37:43;31.37;;;14.93;;
72649;SDS011;61467;50.674;4.618;2024-03-08T03:40:16;28.77;;;14.15;;
72649;SDS011;61467;50.674;4.618;2024-03-08T03:42:45;26.08;;;13.68;;
72649;SDS011;61467;50.674;4.618;2024-03-08T03:45:12;29.58;;;14.73;;
72649;SDS011;61467;50.674;4.618;2024-03-08T03:47:42;29.20;;;14.73;;
72649;SDS011;61467;50.674;4.618;2024-03-08T03:50:09;26.83;;;14.90;;
72649;SDS011;61467;50.674;4.618;2024-03-08T03:52:36;27.92;;;14.18;;
72649;SDS011;61467;50.674;4.618;2024-03-08T03:55:03;30.90;;;15.00;;
72649;SDS011;61467;50.674;4.618;2024-03-08T03:57:30;26.67;;;14.15;;
72649;SDS011;61467;50.674;4.618;2024-03-08T03:59:58;26.50;;;14.90;;
72649;SDS011;61467;50.674;4.618;2024-03-08T04:02:27;29.97;;;14.43;;
72649;SDS011;61467;50.674;4.618;2024-03-08T04:04:56;29.33;;;15.15;;
72649;SDS011;61467;50.674;4.618;2024-03-08T04:07:24;27.17;;;14.38;;
72649;SDS011;61467;50.674;4.618;2024-03-08T04:09:51;31.63;;;14.90;;
72649;SDS011;61467;50.674;4.618;2024-03-08T04:12:17;29.17;;;15.07;;
72649;SDS011;61467;50.674;4.618;2024-03-08T04:14:44;27.87;;;14.47;;
72649;SDS011;61467;50.674;4.618;2024-03-08T04:17:11;27.10;;;14.30;;
72649;SDS011;61467;50.674;4.618;2024-03-08T04:19:37;28.42;;;14.93;;
72649;SDS011;61467;50.674;4.618;2024-03-08T04:22:06;27.33;;;14.65;;
72649;SDS011;61467;50.674;4.618;2024-03-08T04:24:33;30.83;;;15.10;;
72649;SDS011;61467;50.674;4.618;2024-03-08T04:27:00;28.57;;;14.67;;
72649;SDS011;61467;50.674;4.618;2024-03-08T04:29:27;29.25;;;14.30;;
72649;SDS011;61467;50.674;4.618;2024-03-08T04:31:54;28.50;;;15.13;;
72649;SDS011;61467;50.674;4.618;2024-03-08T04:34:21;28.05;;;14.57;;
72649;SDS011;61467;50.674;4.618;2024-03-08T04:36:49;28.77;;;14.95;;
72649;SDS011;61467;50.674;4.618;2024-03-08T04:39:17;32.30;;;14.40;;
72649;SDS011;61467;50.674;4.618;2024-03-08T04:41:44;27.75;;;14.55;;
72649;SDS011;61467;50.674;4.618;2024-03-08T04:44:11;27.85;;;14.45;;
72649;SDS011;61467;50.674;4.618;2024-03-08T04:46:39;27.75;;;14.13;;
72649;SDS011;61467;50.674;4.618;2024-03-08T04:49:06;26.65;;;14.15;;
72649;SDS011;61467;50.674;4.618;2024-03-08T04:51:33;26.43;;;14.90;;
72649;SDS011;61467;50.674;4.618;2024-03-08T04:54:00;32.40;;;15.80;;
72649;SDS011;61467;50.674;4.618;2024-03-08T04:56:29;26.50;;;13.15;;
72649;SDS011;61467;50.674;4.618;2024-03-08T04:58:56;28.77;;;15.00;;
72649;SDS011;61467;50.674;4.618;2024-03-08T05:01:23;28.42;;;14.40;;
72649;SDS011;61467;50.674;4.618;2024-03-08T05:03:51;28.83;;;14.30;;
72649;SDS011;61467;50.674;4.618;2024-03-08T05:06:20;29.25;;;15.23;;
72649;SDS011;61467;50.674;4.618;2024-03-08T05:08:48;28.80;;;15.20;;
72649;SDS011;61467;50.674;4.618;2024-03-08T05:11:15;28.27;;;14.10;;
72649;SDS011;61467;50.674;4.618;2024-03-08T05:13:44;30.73;;;14.68;;
72649;SDS011;61467;50.674;4.618;2024-03-08T05:16:11;27.40;;;14.77;;
72649;SDS011;61467;50.674;4.618;2024-03-08T05:18:40;29.83;;;15.25;;
72649;SDS011;61467;50.674;4.618;2024-03-08T05:21:08;27.42;;;15.65;;
72649;SDS011;61467;50.674;4.618;2024-03-08T05:23:35;27.17;;;14.18;;
72649;SDS011;61467;50.674;4.618;2024-03-08T05:26:03;26.08;;;13.02;;
72649;SDS011;61467;50.674;4.618;2024-03-08T05:28:30;28.63;;;15.00;;
72649;SDS011;61467;50.674;4.618;2024-03-08T05:30:59;33.00;;;14.38;;
72649;SDS011;61467;50.674;4.618;2024-03-08T05:33:26;28.02;;;15.10;;
72649;SDS011;61467;50.674;4.618;2024-03-08T05:35:53;26.90;;;14.70;;
72649;SDS011;61467;50.674;4.618;2024-03-08T05:38:21;29.65;;;15.15;;
72649;SDS011;61467;50.674;4.618;2024-03-08T05:40:48;29.83;;;15.20;;
72649;SDS011;61467;50.674;4.618;2024-03-08T05:43:16;27.92;;;14.55;;
72649;SDS011;61467;50.674;4.618;2024-03-08T05:45:44;27.58;;;14.55;;
72649;SDS011;61467;50.674;4.618;2024-03-08T05:48:13;29.05;;;13.82;;
72649;SDS011;61467;50.674;4.618;2024-03-08T05:50:40;30.10;;;13.90;;
72649;SDS011;61467;50.674;4.618;2024-03-08T05:53:08;28.13;;;14.67;;
72649;SDS011;61467;50.674;4.618;2024-03-08T05:55:35;26.25;;;13.57;;
72649;SDS011;61467;50.674;4.618;2024-03-08T05:58:02;31.85;;;14.88;;
72649;SDS011;61467;50.674;4.618;2024-03-08T06:00:29;30.60;;;14.63;;
72649;SDS011;61467;50.674;4.618;2024-03-08T06:02:56;32.30;;;15.52;;
72649;SDS011;61467;50.674;4.618;2024-03-08T06:05:25;28.03;;;14.70;;
72649;SDS011;61467;50.674;4.618;2024-03-08T06:07:52;30.70;;;14.40;;
72649;SDS011;61467;50.674;4.618;2024-03-08T06:10:19;28.08;;;14.80;;
72649;SDS011;61467;50.674;4.618;2024-03-08T06:12:46;31.13;;;14.80;;
72649;SDS011;61467;50.674;4.618;2024-03-08T06:15:13;27.52;;;15.23;;
72649;SDS011;61467;50.674;4.618;2024-03-08T06:17:41;27.63;;;14.13;;
72649;SDS011;61467;50.674;4.618;2024-03-08T06:20:08;27.48;;;14.10;;
72649;SDS011;61467;50.674;4.618;2024-03-08T06:22:39;30.33;;;14.63;;
72649;SDS011;61467;50.674;4.618;2024-03-08T06:25:07;29.27;;;15.98;;
72649;SDS011;61467;50.674;4.618;2024-03-08T06:27:35;32.58;;;14.40;;
72649;SDS011;61467;50.674;4.618;2024-03-08T06:30:02;28.80;;;14.17;;
72649;SDS011;61467;50.674;4.618;2024-03-08T06:32:30;26.20;;;14.38;;
72649;SDS011;61467;50.674;4.618;2024-03-08T06:35:00;30.23;;;15.02;;
72649;SDS011;61467;50.674;4.618;2024-03-08T06:37:27;28.70;;;14.40;;
72649;SDS011;61467;50.674;4.618;2024-03-08T06:39:58;29.55;;;14.80;;
72649;SDS011;61467;50.674;4.618;2024-03-08T06:42:26;29.97;;;15.00;;
72649;SDS011;61467;50.674;4.618;2024-03-08T06:44:53;29.48;;;14.85;;
72649;SDS011;61467;50.674;4.618;2024-03-08T06:47:25;30.75;;;13.75;;
72649;SDS011;61467;50.674;4.618;2024-03-08T06:49:52;28.00;;;14.18;;
72649;SDS011;61467;50.674;4.618;2024-03-08T06:52:18;30.02;;;15.60;;
72649;SDS011;61467;50.674;4.618;2024-03-08T06:54:45;29.50;;;15.37;;
72649;SDS011;61467;50.674;4.618;2024-03-08T06:57:14;29.35;;;13.38;;
72649;SDS011;61467;50.674;4.618;2024-03-08T06:59:41;29.02;;;13.88;;
72649;SDS011;61467;50.674;4.618;2024-03-08T07:02:10;28.88;;;14.10;;
72649;SDS011;61467;50.674;4.618;2024-03-08T07:04:37;29.08;;;13.93;;
72649;SDS011;61467;50.674;4.618;2024-03-08T07:07:04;26.80;;;14.03;;
72649;SDS011;61467;50.674;4.618;2024-03-08T07:09:33;27.55;;;13.30;;
72649;SDS011;61467;50.674;4.618;2024-03-08T07:12:00;27.02;;;14.70;;
72649;SDS011;61467;50.674;4.618;2024-03-08T07:14:28;29.17;;;13.77;;
72649;SDS011;61467;50.674;4.618;2024-03-08T07:16:56;28.73;;;13.93;;
72649;SDS011;61467;50.674;4.618;2024-03-08T07:19:23;29.33;;;14.27;;
72649;SDS011;61467;50.674;4.618;2024-03-08T07:21:50;30.98;;;13.68;;
72649;SDS011;61467;50.674;4.618;2024-03-08T07:24:17;28.50;;;14.45;;
72649;SDS011;61467;50.674;4.618;2024-03-08T07:27:04;26.77;;;13.80;;
72649;SDS011;61467;50.674;4.618;2024-03-08T07:29:33;26.83;;;13.77;;
72649;SDS011;61467;50.674;4.618;2024-03-08T07:32:00;27.20;;;13.93;;
72649;SDS011;61467;50.674;4.618;2024-03-08T07:34:37;24.58;;;12.70;;
72649;SDS011;61467;50.674;4.618;2024-03-08T07:37:05;31.05;;;12.75;;
72649;SDS011;61467;50.674;4.618;2024-03-08T07:39:36;28.10;;;13.57;;
72649;SDS011;61467;50.674;4.618;2024-03-08T07:42:04;27.63;;;14.38;;
72649;SDS011;61467;50.674;4.618;2024-03-08T07:44:33;27.43;;;13.60;;
72649;SDS011;61467;50.674;4.618;2024-03-08T07:47:00;27.13;;;13.25;;
72649;SDS011;61467;50.674;4.618;2024-03-08T07:49:27;25.83;;;13.88;;
72649;SDS011;61467;50.674;4.618;2024-03-08T07:51:54;24.35;;;12.95;;
72649;SDS011;61467;50.674;4.618;2024-03-08T07:54:20;30.92;;;13.73;;
72649;SDS011;61467;50.674;4.618;2024-03-08T07:56:47;29.87;;;13.03;;
72649;SDS011;61467;50.674;4.618;2024-03-08T07:59:16;26.33;;;12.73;;
72649;SDS011;61467;50.674;4.618;2024-03-08T08:01:44;28.35;;;13.25;;
72649;SDS011;61467;50.674;4.618;2024-03-08T08:04:12;24.60;;;12.35;;
72649;SDS011;61467;50.674;4.618;2024-03-08T08:06:40;27.02;;;13.43;;
72649;SDS011;61467;50.674;4.618;2024-03-08T08:09:07;26.97;;;12.13;;
72649;SDS011;61467;50.674;4.618;2024-03-08T08:11:39;23.02;;;12.18;;
72649;SDS011;61467;50.674;4.618;2024-03-08T08:14:08;25.45;;;13.40;;
72649;SDS011;61467;50.674;4.618;2024-03-08T08:16:35;27.08;;;13.30;;
72649;SDS011;61467;50.674;4.618;2024-03-08T08:19:04;34.53;;;14.30;;
72649;SDS011;61467;50.674;4.618;2024-03-08T08:21:33;25.53;;;12.73;;
72649;SDS011;61467;50.674;4.618;2024-03-08T08:24:02;26.73;;;12.48;;
72649;SDS011;61467;50.674;4.618;2024-03-08T08:26:29;30.35;;;13.25;;
72649;SDS011;61467;50.674;4.618;2024-03-08T08:28:58;26.85;;;13.55;;
72649;SDS011;61467;50.674;4.618;2024-03-08T08:31:25;26.52;;;12.40;;
72649;SDS011;61467;50.674;4.618;2024-03-08T08:33:52;25.67;;;12.90;;
72649;SDS011;61467;50.674;4.618;2024-03-08T08:36:24;27.38;;;13.07;;
72649;SDS011;61467;50.674;4.618;2024-03-08T08:38:51;23.10;;;12.82;;
72649;SDS011;61467;50.674;4.618;2024-03-08T08:41:19;25.63;;;12.63;;
72649;SDS011;61467;50.674;4.618;2024-03-08T08:43:47;25.83;;;13.32;;
72649;SDS011;61467;50.674;4.618;2024-03-08T08:46:16;26.20;;;13.30;;
72649;SDS011;61467;50.674;4.618;2024-03-08T08:48:43;23.40;;;12.18;;
72649;SDS011;61467;50.674;4.618;2024-03-08T08:51:11;26.92;;;13.00;;
72649;SDS011;61467;50.674;4.618;2024-03-08T08:53:40;25.88;;;13.27;;
72649;SDS011;61467;50.674;4.618;2024-03-08T08:56:08;27.25;;;12.90;;
72649;SDS011;61467;50.674;4.618;2024-03-08T08:58:38;25.67;;;12.47;;
72649;SDS011;61467;50.674;4.618;2024-03-08T09:01:06;28.58;;;13.77;;
72649;SDS011;61467;50.674;4.618;2024-03-08T09:03:33;27.35;;;12.65;;
72649;SDS011;61467;50.674;4.618;2024-03-08T09:06:02;25.92;;;12.73;;
72649;SDS011;61467;50.674;4.618;2024-03-08T09:08:30;24.35;;;13.13;;
72649;SDS011;61467;50.674;4.618;2024-03-08T09:10:58;28.07;;;12.93;;
72649;SDS011;61467;50.674;4.618;2024-03-08T09:13:26;25.70;;;12.55;;
72649;SDS011;61467;50.674;4.618;2024-03-08T09:15:53;27.10;;;13.93;;
72649;SDS011;61467;50.674;4.618;2024-03-08T09:18:19;24.77;;;13.23;;
72649;SDS011;61467;50.674;4.618;2024-03-08T09:20:46;24.45;;;11.98;;
72649;SDS011;61467;50.674;4.618;2024-03-08T09:23:13;26.60;;;12.73;;
72649;SDS011;61467;50.674;4.618;2024-03-08T09:25:42;24.50;;;12.10;;
72649;SDS011;61467;50.674;4.618;2024-03-08T09:28:10;24.02;;;11.32;;
72649;SDS011;61467;50.674;4.618;2024-03-08T09:30:38;23.15;;;12.23;;
72649;SDS011;61467;50.674;4.618;2024-03-08T09:33:05;21.92;;;10.85;;
72649;SDS011;61467;50.674;4.618;2024-03-08T09:35:32;22.17;;;12.00;;
72649;SDS011;61467;50.674;4.618;2024-03-08T09:37:59;24.88;;;12.23;;
72649;SDS011;61467;50.674;4.618;2024-03-08T09:40:26;24.15;;;12.35;;
72649;SDS011;61467;50.674;4.618;2024-03-08T09:42:53;25.98;;;12.60;;
72649;SDS011;61467;50.674;4.618;2024-03-08T09:45:22;25.02;;;12.02;;
72649;SDS011;61467;50.674;4.618;2024-03-08T09:47:51;27.97;;;12.30;;
72649;SDS011;61467;50.674;4.618;2024-03-08T09:50:19;23.13;;;12.05;;
72649;SDS011;61467;50.674;4.618;2024-03-08T09:52:47;23.33;;;12.45;;
72649;SDS011;61467;50.674;4.618;2024-03-08T09:55:15;27.50;;;11.88;;
72649;SDS011;61467;50.674;4.618;2024-03-08T09:57:47;23.48;;;11.35;;
72649;SDS011;61467;50.674;4.618;2024-03-08T10:00:30;22.57;;;11.27;;
72649;SDS011;61467;50.674;4.618;2024-03-08T10:03:00;24.23;;;11.77;;
72649;SDS011;61467;50.674;4.618;2024-03-08T10:05:27;21.55;;;11.25;;
72649;SDS011;61467;50.674;4.618;2024-03-08T10:07:54;22.80;;;11.30;;
72649;SDS011;61467;50.674;4.618;2024-03-08T10:10:21;22.85;;;11.70;;
72649;SDS011;61467;50.674;4.618;2024-03-08T10:12:48;24.07;;;11.47;;
72649;SDS011;61467;50.674;4.618;2024-03-08T10:15:15;22.50;;;11.15;;
72649;SDS011;61467;50.674;4.618;2024-03-08T10:17:44;21.17;;;11.30;;
72649;SDS011;61467;50.674;4.618;2024-03-08T10:20:14;24.13;;;11.60;;
72649;SDS011;61467;50.674;4.618;2024-03-08T10:22:42;22.67;;;12.07;;
72649;SDS011;61467;50.674;4.618;2024-03-08T10:25:09;27.10;;;12.10;;
72649;SDS011;61467;50.674;4.618;2024-03-08T10:27:38;23.88;;;10.68;;
72649;SDS011;61467;50.674;4.618;2024-03-08T10:30:06;24.25;;;11.73;;
72649;SDS011;61467;50.674;4.618;2024-03-08T10:32:37;24.05;;;10.88;;
72649;SDS011;61467;50.674;4.618;2024-03-08T10:35:08;22.70;;;11.68;;
72649;SDS011;61467;50.674;4.618;2024-03-08T10:37:36;25.63;;;12.50;;
72649;SDS011;61467;50.674;4.618;2024-03-08T10:40:13;21.38;;;11.07;;
72649;SDS011;61467;50.674;4.618;2024-03-08T10:42:46;20.65;;;10.77;;
72649;SDS011;61467;50.674;4.618;2024-03-08T10:45:21;23.38;;;11.65;;
72649;SDS011;61467;50.674;4.618;2024-03-08T10:47:59;23.27;;;12.15;;
72649;SDS011;61467;50.674;4.618;2024-03-08T10:50:49;23.30;;;11.07;;
72649;SDS011;61467;50.674;4.618;2024-03-08T10:53:17;21.92;;;10.70;;
72649;SDS011;61467;50.674;4.618;2024-03-08T10:55:46;23.85;;;10.90;;
72649;SDS011;61467;50.674;4.618;2024-03-08T10:58:13;21.45;;;10.95;;
72649;SDS011;61467;50.674;4.618;2024-03-08T11:00:41;21.15;;;11.40;;
72649;SDS011;61467;50.674;4.618;2024-03-08T11:03:14;21.27;;;10.73;;
72649;SDS011;61467;50.674;4.618;2024-03-08T11:06:15;20.17;;;10.52;;
72649;SDS011;61467;50.674;4.618;2024-03-08T11:08:43;20.73;;;10.23;;
72649;SDS011;61467;50.674;4.618;2024-03-08T11:11:23;24.90;;;11.70;;
72649;SDS011;61467;50.674;4.618;2024-03-08T11:13:56;21.70;;;10.55;;
72649;SDS011;61467;50.674;4.618;2024-03-08T11:16:37;18.87;;;9.93;;
72649;SDS011;61467;50.674;4.618;2024-03-08T11:22:02;19.35;;;10.48;;
72649;SDS011;61467;50.674;4.618;2024-03-08T11:24:36;18.95;;;10.90;;
72649;SDS011;61467;50.674;4.618;2024-03-08T11:27:05;22.45;;;10.13;;
72649;SDS011;61467;50.674;4.618;2024-03-08T11:29:37;19.47;;;10.27;;
72649;SDS011;61467;50.674;4.618;2024-03-08T11:32:09;21.30;;;11.20;;
72649;SDS011;61467;50.674;4.618;2024-03-08T11:34:37;22.42;;;11.40;;
72649;SDS011;61467;50.674;4.618;2024-03-08T11:37:07;23.25;;;11.18;;
72649;SDS011;61467;50.674;4.618;2024-03-08T11:39:38;23.90;;;10.93;;
72649;SDS011;61467;50.674;4.618;2024-03-08T11:42:06;17.93;;;10.90;;
72649;SDS011;61467;50.674;4.618;2024-03-08T11:44:33;19.23;;;10.23;;
72649;SDS011;61467;50.674;4.618;2024-03-08T11:47:01;21.50;;;10.48;;
72649;SDS011;61467;50.674;4.618;2024-03-08T11:49:31;19.08;;;10.93;;
72649;SDS011;61467;50.674;4.618;2024-03-08T11:51:58;20.77;;;11.07;;
72649;SDS011;61467;50.674;4.618;2024-03-08T11:54:26;21.80;;;10.37;;
72649;SDS011;61467;50.674;4.618;2024-03-08T11:56:55;20.55;;;10.75;;
72649;SDS011;61467;50.674;4.618;2024-03-08T11:59:26;20.20;;;10.20;;
72649;SDS011;61467;50.674;4.618;2024-03-08T12:04:39;18.77;;;10.98;;
72649;SDS011;61467;50.674;4.618;2024-03-08T12:07:09;19.27;;;10.43;;
72649;SDS011;61467;50.674;4.618;2024-03-08T12:09:38;19.98;;;10.63;;
72649;SDS011;61467;50.674;4.618;2024-03-08T12:12:06;19.55;;;10.13;;
72649;SDS011;61467;50.674;4.618;2024-03-08T12:14:34;22.02;;;10.38;;
72649;SDS011;61467;50.674;4.618;2024-03-08T12:17:01;21.88;;;10.77;;
72649;SDS011;61467;50.674;4.618;2024-03-08T12:19:29;18.87;;;10.10;;
72649;SDS011;61467;50.674;4.618;2024-03-08T12:21:56;20.75;;;10.95;;
72649;SDS011;61467;50.674;4.618;2024-03-08T12:24:23;16.17;;;8.48;;
72649;SDS011;61467;50.674;4.618;2024-03-08T12:26:53;15.40;;;7.80;;
72649;SDS011;61467;50.674;4.618;2024-03-08T12:29:24;18.10;;;8.82;;
72649;SDS011;61467;50.674;4.618;2024-03-08T12:31:53;18.27;;;9.23;;
72649;SDS011;61467;50.674;4.618;2024-03-08T12:34:21;20.83;;;9.18;;
72649;SDS011;61467;50.674;4.618;2024-03-08T12:36:48;16.25;;;8.43;;
72649;SDS011;61467;50.674;4.618;2024-03-08T12:39:17;17.58;;;8.73;;
72649;SDS011;61467;50.674;4.618;2024-03-08T12:41:47;13.82;;;7.45;;
72649;SDS011;61467;50.674;4.618;2024-03-08T12:44:16;15.30;;;7.70;;
72649;SDS011;61467;50.674;4.618;2024-03-08T12:46:44;15.55;;;7.60;;
72649;SDS011;61467;50.674;4.618;2024-03-08T12:49:11;18.63;;;9.10;;
72649;SDS011;61467;50.674;4.618;2024-03-08T12:51:42;17.15;;;8.20;;
72649;SDS011;61467;50.674;4.618;2024-03-08T12:54:09;16.67;;;8.40;;
72649;SDS011;61467;50.674;4.618;2024-03-08T12:56:36;13.20;;;6.70;;
72649;SDS011;61467;50.674;4.618;2024-03-08T12:59:05;13.43;;;7.18;;
72649;SDS011;61467;50.674;4.618;2024-03-08T13:01:35;16.38;;;6.70;;
72649;SDS011;61467;50.674;4.618;2024-03-08T13:04:03;15.40;;;7.32;;
72649;SDS011;61467;50.674;4.618;2024-03-08T13:06:31;15.38;;;6.75;;
72649;SDS011;61467;50.674;4.618;2024-03-08T13:08:58;12.70;;;5.93;;
72649;SDS011;61467;50.674;4.618;2024-03-08T13:11:30;15.55;;;6.35;;
72649;SDS011;61467;50.674;4.618;2024-03-08T13:14:01;12.63;;;6.53;;
72649;SDS011;61467;50.674;4.618;2024-03-08T13:16:29;13.63;;;6.35;;
72649;SDS011;61467;50.674;4.618;2024-03-08T13:18:58;18.55;;;7.18;;
72649;SDS011;61467;50.674;4.618;2024-03-08T13:21:25;13.20;;;5.77;;
72649;SDS011;61467;50.674;4.618;2024-03-08T13:23:52;12.43;;;5.97;;
72649;SDS011;61467;50.674;4.618;2024-03-08T13:26:20;12.75;;;6.35;;
72649;SDS011;61467;50.674;4.618;2024-03-08T13:28:48;12.30;;;6.03;;
72649;SDS011;61467;50.674;4.618;2024-03-08T13:31:18;14.27;;;6.05;;
72649;SDS011;61467;50.674;4.618;2024-03-08T13:33:45;12.57;;;6.17;;
72649;SDS011;61467;50.674;4.618;2024-03-08T13:36:14;16.20;;;6.97;;
72649;SDS011;61467;50.674;4.618;2024-03-08T13:38:42;13.48;;;6.45;;
72649;SDS011;61467;50.674;4.618;2024-03-08T13:41:10;12.93;;;6.32;;
72649;SDS011;61467;50.674;4.618;2024-03-08T13:43:39;15.65;;;6.63;;
72649;SDS011;61467;50.674;4.618;2024-03-08T13:46:07;14.87;;;7.07;;
72649;SDS011;61467;50.674;4.618;2024-03-08T13:48:35;11.35;;;6.43;;
72649;SDS011;61467;50.674;4.618;2024-03-08T13:51:04;13.18;;;6.68;;
72649;SDS011;61467;50.674;4.618;2024-03-08T13:53:33;11.48;;;6.00;;
72649;SDS011;61467;50.674;4.618;2024-03-08T13:56:00;11.32;;;5.70;;
72649;SDS011;61467;50.674;4.618;2024-03-08T13:58:28;14.27;;;6.00;;
72649;SDS011;61467;50.674;4.618;2024-03-08T14:00:55;12.07;;;6.00;;
72649;SDS011;61467;50.674;4.618;2024-03-08T14:03:22;13.65;;;6.85;;
72649;SDS011;61467;50.674;4.618;2024-03-08T14:05:49;14.50;;;6.75;;
72649;SDS011;61467;50.674;4.618;2024-03-08T14:08:16;15.55;;;6.95;;
72649;SDS011;61467;50.674;4.618;2024-03-08T14:10:45;12.47;;;6.00;;
72649;SDS011;61467;50.674;4.618;2024-03-08T14:13:14;13.43;;;5.97;;
72649;SDS011;61467;50.674;4.618;2024-03-08T14:15:43;14.13;;;5.93;;
72649;SDS011;61467;50.674;4.618;2024-03-08T14:18:11;11.15;;;4.70;;
72649;SDS011;61467;50.674;4.618;2024-03-08T14:20:39;16.33;;;7.03;;
72649;SDS011;61467;50.674;4.618;2024-03-08T14:23:07;15.03;;;7.03;;
72649;SDS011;61467;50.674;4.618;2024-03-08T14:25:34;13.07;;;5.88;;
72649;SDS011;61467;50.674;4.618;2024-03-08T14:28:02;11.07;;;5.13;;
72649;SDS011;61467;50.674;4.618;2024-03-08T14:30:32;13.13;;;6.60;;
72649;SDS011;61467;50.674;4.618;2024-03-08T14:33:00;14.57;;;6.97;;
72649;SDS011;61467;50.674;4.618;2024-03-08T14:35:27;13.63;;;5.93;;
72649;SDS011;61467;50.674;4.618;2024-03-08T14:37:55;15.45;;;6.55;;
72649;SDS011;61467;50.674;4.618;2024-03-08T14:40:23;11.50;;;4.95;;